Language selection

Weather shortcuts

Atlantic - Labrador: Past 24 Hour Conditions

 

CFB Goose Bay

03:00 PM ADT 14 April 2024
Disclaimer

This table is a summary of hourly weather conditions for the past 24 hours.
Please note that these observations might not always be representative of weather conditions over their associated marine area.

Date / Time
(ADT)
Wind(knots) Conditions Visibility(km) Pressure(kPa) Air tempC) Relative humidity(%) Dew pointC)
14 April 2024
15:00 S 23 gusts 32 Mostly Cloudy 24 99.4 9 68 3
14:00 SSW 23 gusts 35 Mostly Cloudy 24 99.4 8 69 2
13:00 S 22 gusts 31 Light Rainshower 24 99.3 8 71 3
12:00 S 18 gusts 33 Mostly Cloudy 24 99.3 8 68 3
11:00 SSE 23 gusts 30 Mostly Cloudy 24 99.4 9 69 4
10:00 S 22 gusts 30 Mostly Cloudy 24 99.4 10 75 6
9:00 SSE 9 Mostly Cloudy 24 99.5 9 85 7
8:00 S 11 Mostly Cloudy 24 99.5 9 85 7
7:00 S 6 Mostly Cloudy 24 99.5 8 90 7
6:00 S 6 Light Rainshower 24 99.5 8 90 7
5:00 N 3 Light Rain 24 99.5 6 98 6
4:00 SE 6 Light Rain 13 99.7 8 93 7
3:00 NE 7 Light Rain 13 99.7 5 99 5
2:00 E 6 Light Rain and Fog 8 99.9 8 94 7
1:00 NE 9 Light Rain 19 100.0 8 96 7
0:00 NE 7 Light Rain 19 100.1 8 97 7
13 April 2024
23:00 E 3 Light Rain 16 100.3 8 91 7
22:00 S 5 Mostly Cloudy 24 100.4 9 84 7
21:00 S 6 Mostly Cloudy 24 100.4 10 79 7
20:00 S 13 Mostly Cloudy 24 100.4 12 74 7
19:00 S 10 Mostly Cloudy 24 100.4 13 71 7
18:00 S 8 Mostly Cloudy 24 100.4 14 70 8
17:00 SSE 8 Mostly Cloudy 24 100.4 14 72 9
16:00 SSE 13 gusts 20 Mostly Cloudy 24 100.4 15 70 9
15:00 SSE 10 Mostly Cloudy 24 100.4 15 70 9

Zoom-in to make a selection

Map of Atlantic - Labrador marine weather areas Kangiqsualujjuaq Airport Cape Kakkiviak Cape Kiglapait Cartwright Airport CFB Goose Bay Hopedale Mary's Harbour Nain Airport Makkovik Airport Saglek Tukialik Bay
Legend:
buoy Buoy
land station Land Station

Atlantic - Labrador Area

Another Region

Date modified: